Bonney Lake, Washington
Current Conditions -  °F | °C
As of 3:58 AM on Wednesday 26 Nov 2014 (Local Time) from KTCM Reporting Station
Broken Clouds Broken Clouds  
Wind Chill: 53°   Ceiling: 5500
Heat Index: 53°   Visibility: 10mi
Dew Point: 53°   Wind: 6mph
Humidity: 99%   Direction: 190°S
Pressure: 30.18"   Gusts: NA
Location:  47.17°N, 122.17°W
Report Text: KTCM 261158Z AUTO 19005KT 10SM BKN055 12/12 A3018 RMK AO2 SLP224 60000 70102 T01170115 10133 20115 55009 $
Loading
Personal Weather Stations






























Interactive Weather Map New forecast layout! Learn more

10-Day Weather Forecast

Advertisements
Track Severe Weather on mobile